首页
METAR-TAF:

METAR-TAF

机场 :

Hunter Army Airfield / Fort Stewart

薩凡納, 喬治亞, 美国

纬度: 32-01N, 经度: 081-09W, 海拔: 13米

当前天气观测

该预报发布于1小时和19分钟前的11:55 UTC
静风
温度 27°C
湿度 58%
气压 1021 hPa
能見度: 16.1公里
天空无云

METAR: KSVN 191155Z AUTO 00000KT 10SM CLR 27/18 A3014 RMK AO2 SLP209 60001 70001 T02650181 10265 20228 52009 $

时间: 09:14 (13:14 UTC)

预报

该预报发布于28小时和14分钟前的09:00 UTC
预报有效从18日的 09点(UTC)到 19日的 15点(UTC)
风速9节,风向
能见度10公里或以上
天空无云
成为
从 18日的 12点(UTC)到 18日的 13点(UTC)
风速15节,风向,有时为20节阵风
能见度10公里或以上
少量云层高于3500英尺
成为
从 18日的 19点(UTC)到 18日的 20点(UTC)
风速12节,风向
能见度10公里或以上
多云层高于2000英尺
成为
从 19日的 14点(UTC)到 19日的 15点(UTC)
风速15节,风向,有时为20节阵风
能见度10公里或以上
少量云层高于4000英尺

TAF: KSVN 180900Z 1809/1915 09009KT 9999 SKC QNH3013INS BECMG 1812/1813 08015G20KT 9999 FEW035 QNH3013INS BECMG 1819/1820 08012KT 9999 BKN020 QNH3014INS BECMG 1914/1915 08015G20KT 9999 FEW040 510063 QNH3022INS TX32/1817Z TN24/1904Z

超过4000个机场的气象观测和天气预报(METAR&TAF报告)。

可查询的气象台以黄色和红色小点在地图上表示。

将鼠标移到小点上方,可查看气象台名称。

然后点击查看天气观测和预报。

如需切换地图:点击带黑十字的绿色按钮放大地图;点击带横线的绿色按钮缩小地图;或者点击绿色箭头查看邻近地区的地图。


METAR-TAF: